Camp Meeker, CA (95419)

12:27 PM PDT on July 25, 2016 (GMT -0700)
McKee Vineyard | | Change Station

Elev 827 ft 38.44 °N, 122.95 °W | Updated 3 minutes ago

Haze
Haze
78.0 °F
Feels Like 79 °F
N
5.0
Wind Variable Wind from ESE
Gusts 9.0 mph

Today
High -- | Low -- °F
--% Chance of Precip.
Yesterday
High -- | Low -- °F
Precip. -- in
Pressure 29.90 in
Visibility 9.0 miles
Clouds Clear
Heat Index 79 °F
Dew Point 58 °F
Humidity 51%
Rainfall 0.00 in
Snow Depth Not available.
6:08 AM 8:27 PM
Waning Gibbous, 63% visible
METAR KSTS 251853Z 00000KT 9SM HZ CLR 23/13 A2992 RMK AO2 SLP124 T02280128
Pressure 29.90 in
Visibility 9.0 miles
Clouds Clear
Heat Index 79 °F
Dew Point 58 °F
Humidity 51%
Rainfall 0.00 in
Snow Depth Not available.
6:08 AM 8:27 PM
Waning Gibbous, 63% visible
METAR KSTS 251853Z 00000KT 9SM HZ CLR 23/13 A2992 RMK AO2 SLP124 T02280128

10-Day Weather Forecast

Almanac

Astronomy

Jul. 25, 2016 Rise Set
Actual Time
Civil Twilight
Nautical Twilight
Astronomical Twilight
Moon
Length of Visible Light
Length of Day
Tomorrow will be .
, % of the Moon is Illuminated

Today's Extremes

State Highs State Lows

Community

WunderPhotos

Upload Photos

1,927,388 photos uploaded!

WunderBlog® & News

Nearby

Air Quality

  Air Quality AQ Index Pollutant
Not available.

Snow Depth

Station Depth Elevation

Earthquake Activity

City Distance Mag. Time & Date
Minimum magnitude displayed is 2.5.

Coastal Water Temperatures

Place Temperature

Stations

Nearby Weather Stations

Station Location Temp. Windchill Dew Point Humidity Wind Precip. Elev Updated Type
                   

Watches & Warnings

There are currently no watches in effect.